• Join FlightAware (Why Join?)
  • Login
  • US Flag 
08:49PM EDT


 

Airport Tracker/Info


-or-


 

Live Flight TrackerFlight Track Log ✈ N830QS ✈ 13-Jul-2014 ✈ KLCI - KIAD

Flight Track Log - Related Links

Times and Time Zones

All times are in EDT time to prevent confusion due to time zone crossing. See the N830QS flight status page for this flight to view local times or setup timezone preferences in your user account.

Time Position Orientation Groundspeed Altitude Reporting Facility
EDT Latitude Longitude Course Direction KTS MPH feet Rate Location/Type
04:58PM 43.5667 -71.4500 257° West 224 258 1,900  Level KA90
04:59PM 43.5592 -71.4958 257° West 197 227 3,800 3,480 Climbing Boston Center
05:00PM 43.5250 -71.5556 232° Southwest 198 228 7,600 3,000 Climbing Boston Center
05:01PM 43.4889 -71.6267 235° Southwest 236 272 10,100 2,460 Climbing Boston Center
05:02PM 43.4583 -71.7392 250° West 286 329 12,800 2,580 Climbing Boston Center
05:04PM 43.4025 -71.9389 249° West 280 322 18,200 2,460 Climbing Boston Center
05:05PM 43.3528 -72.0125 227° Southwest 261 300 20,400 1,980 Climbing Boston Center
05:06PM 43.2950 -72.0686 215° Southwest 254 292 22,200 1,680 Climbing Boston Center
05:07PM 43.2378 -72.1253 216° Southwest 254 292 23,900 1,500 Climbing Boston Center
05:08PM 43.1792 -72.1828 216° Southwest 258 297 25,400 1,440 Climbing Boston Center
05:09PM 43.1183 -72.2419 215° Southwest 261 300 26,900 1,440 Climbing Boston Center
05:10PM 43.0553 -72.3036 216° Southwest 282 325 28,400 1,440 Climbing Boston Center
05:11PM 42.9731 -72.3847 216° Southwest 300 345 30,000 720 Climbing Boston Center
05:12PM 42.8961 -72.4583 215° Southwest 333 383 30,000  Level Boston Center
05:13PM 42.8089 -72.5417 215° Southwest 374 430 30,000  Level Boston Center
05:14PM 42.7147 -72.6319 215° Southwest 389 448 30,000  Level Boston Center
05:15PM 42.6233 -72.7186 215° Southwest 397 457 30,000  Level Boston Center
05:16PM 42.5322 -72.8058 215° Southwest 400 460 30,000  Level Boston Center
05:17PM 42.4397 -72.8944 215° Southwest 404 465 30,000  Level Boston Center
05:18PM 42.3483 -72.9819 215° Southwest 406 467 30,000  Level Boston Center
05:20PM 42.2497 -73.0747 215° Southwest 405 466 30,000  Level Boston Center
05:21PM 42.1569 -73.1617 215° Southwest 404 465 30,000  Level Boston Center
05:22PM 42.0650 -73.2483 215° Southwest 405 466 30,000  Level Boston Center
05:23PM 41.9592 -73.3611 218° Southwest 404 465 30,000  Level Boston Center
05:24PM 41.8758 -73.4617 222° Southwest 403 464 30,000  Level Boston Center
05:25PM 41.7914 -73.5617 221° Southwest 404 465 30,000  Level Boston Center
05:26PM 41.7069 -73.6603 221° Southwest 404 465 30,000  Level Boston Center
05:27PM 41.6153 -73.7681 221° Southwest 403 464 30,000  Level Boston Center
05:28PM 41.5311 -73.8686 222° Southwest 403 464 30,000  Level Boston Center
05:29PM 41.4458 -73.9675 221° Southwest 406 467 30,000  Level Boston Center
05:30PM 41.3619 -74.0633 221° Southwest 405 466 30,000  Level Boston Center
05:30PM 41.3075 -74.1294 222° Southwest 395 455 30,000  Level New York Center
05:31PM 41.2128 -74.2353 220° Southwest 401 461 30,000  Level New York Center
05:32PM 41.1308 -74.3300 221° Southwest 407 468 30,000  Level New York Center
05:33PM 41.0444 -74.4275 220° Southwest 402 463 30,000 -300 Level New York Center
05:34PM 40.9622 -74.5272 223° Southwest 402 463 29,500 -1,020 Descending New York Center
05:35PM 40.8856 -74.6439 229° Southwest 402 463 28,000 -780 Descending New York Center
05:36PM 40.8478 -74.7789 250° West 396 456 28,000  Level New York Center
05:37PM 40.8056 -74.9133 248° West 403 464 28,000  Level New York Center
05:38PM 40.7653 -75.0481 248° West 398 458 28,000  Level New York Center
05:39PM 40.7253 -75.1742 247° West 392 451 28,000  Level New York Center
05:40PM 40.6875 -75.2950 248° West 379 436 28,000 -360 Level New York Center
05:41PM 40.6450 -75.4206 246° West 369 425 27,300 -960 Descending New York Center
05:42PM 40.5947 -75.5347 240° Southwest 369 425 26,100 -1,200 Descending New York Center
05:43PM 40.5464 -75.6461 240° Southwest 368 423 25,000 -1,080 Descending New York Center
05:44PM 40.5047 -75.7469 242° Southwest 349 402 24,000 -1,080 Descending New York Center
05:45PM 40.4608 -75.8447 239° Southwest 319 367 22,900 -1,140 Descending New York Center
05:46PM 40.4031 -75.9303 228° Southwest 333 383 21,800 -1,320 Descending New York Center
05:47PM 40.3297 -76.0283 226° Southwest 364 419 20,300 -900 Descending New York Center
05:48PM 40.2569 -76.1181 223° Southwest 373 429 20,000 -900 Descending New York Center
05:49PM 40.1883 -76.2081 225° Southwest 364 419 18,600 -1,500 Descending New York Center
05:50PM 40.1128 -76.3078 225° Southwest 364 419 17,100 -1,500 Descending New York Center
05:51PM 40.0619 -76.4150 238° Southwest 359 413 15,700 -1,080 Descending New York Center
05:52PM 40.0153 -76.5144 239° Southwest 335 386 15,000 -360 Descending New York Center
05:53PM 39.9686 -76.6189 240° Southwest 329 379 15,000  Level New York Center
05:56PM 39.8667 -76.8500 240° Southwest 328 377 15,000  Level Potomac TRACON
05:57PM 39.8167 -76.9500 237° Southwest 328 377 15,000 -180 Level Potomac TRACON
05:58PM 39.7667 -77.0667 241° Southwest 329 379 14,700 -900 Descending Potomac TRACON
05:59PM 39.7167 -77.1500 232° Southwest 283 326 13,200 -1,440 Descending Potomac TRACON
06:00PM 39.6833 -77.2333 243° Southwest 243 280 11,900 -1,320 Descending Potomac TRACON
06:01PM 39.6833 -77.3167 270° West 242 278 10,600 -1,260 Descending Potomac TRACON
06:02PM 39.6667 -77.4000 255° West 247 284 9,400 -1,200 Descending Potomac TRACON
06:03PM 39.6167 -77.4667 226° Southwest 260 299 8,200 -720 Descending Potomac TRACON
06:04PM 39.5500 -77.4500 169° South 257 296 8,000 -420 Descending Potomac TRACON
06:05PM 39.4833 -77.4500 180° South 257 296 7,400 -540 Descending Potomac TRACON
06:06PM 39.4167 -77.4500 180° South 237 273 7,000 -240 Descending Potomac TRACON
06:07PM 39.3500 -77.4500 180° South 221 254 7,000  Level Potomac TRACON
06:08PM 39.2833 -77.4500 180° South 210 242 7,000 -420 Level Potomac TRACON
06:09PM 39.2333 -77.4500 180° South 213 245 6,200 -540 Descending Potomac TRACON
06:10PM 39.1833 -77.4500 180° South 199 229 6,000 -180 Descending Potomac TRACON
06:11PM 39.1167 -77.4500 180° South 186 214 5,900 -900 Descending Potomac TRACON
06:12PM 39.1000 -77.5167 252° West 186 214 4,100 -1,440 Descending Potomac TRACON
06:13PM 39.1333 -77.5500 322° Northwest 180 207 3,100 -600 Descending Potomac TRACON
06:14PM 39.1833 -77.5667 346° North 191 220 3,000 -60 Descending Potomac TRACON
06:15PM 39.2000 -77.5167 67° East 183 211 3,000  Level Potomac TRACON
06:16PM 39.1667 -77.4833 142° Southeast 176 203 3,000 -300 Level Potomac TRACON
06:17PM 39.1167 -77.4667 165° South 187 215 2,500 -540 Descending Potomac TRACON
06:18PM 39.0667 -77.4500 165° South 179 206 2,000 -660 Descending Potomac TRACON
06:19PM 39.0333 -77.4667 201° Southwest 145 167 1,300 -660 Descending Potomac TRACON
06:20PM 38.9833 -77.4667 180° South 120 138 700 -600 Descending Potomac TRACON